Time;durP1;ratioP1;P1;durP2;ratioP2;P2;SDS_P1;SDS_P2;PMS_P1;PMS_P2;Temp;Humidity;BMP_temperature;BMP_pressure;BME280_temperature;BME280_humidity;BME280_pressure;Samples;Min_cycle;Max_cycle;Signal;HPM_P1;HPM_P2
2023/01/21 00:02:17;;;;;;;38.10;22.43;;;1.30;99.90;;;;;;5074495;28;20250;-72
2023/01/21 00:04:43;;;;;;;44.17;24.03;;;1.30;99.90;;;;;;5074215;28;20671;-72
2023/01/21 00:07:08;;;;;;;39.30;22.90;;;1.20;99.90;;;;;;5072969;28;20177;-73
2023/01/21 00:09:34;;;;;;;40.50;24.63;;;1.10;99.90;;;;;;5073791;28;20176;-73
2023/01/21 00:12:01;;;;;;;44.17;24.33;;;1.10;99.90;;;;;;5074154;28;20175;-71
2023/01/21 00:14:31;;;;;;;45.07;24.63;;;1.10;99.90;;;;;;5074140;28;20189;-73
2023/01/21 00:16:57;;;;;;;41.87;22.90;;;1.00;99.90;;;;;;5072733;28;20595;-71
2023/01/21 00:19:24;;;;;;;45.83;24.07;;;1.00;99.90;;;;;;5072467;28;20182;-72
2023/01/21 00:21:50;;;;;;;43.50;24.50;;;0.90;99.90;;;;;;5074010;28;20180;-71
2023/01/21 00:24:15;;;;;;;40.10;23.07;;;0.90;99.90;;;;;;5073327;28;20208;-71
2023/01/21 00:26:41;;;;;;;45.83;26.13;;;0.80;99.90;;;;;;5074154;28;20222;-72
2023/01/21 00:29:08;;;;;;;43.77;23.40;;;0.80;99.90;;;;;;5073990;28;20551;-70
2023/01/21 00:31:34;;;;;;;43.43;24.10;;;0.80;99.90;;;;;;5073816;28;20164;-70
2023/01/21 00:34:00;;;;;;;54.33;26.60;;;0.80;99.90;;;;;;5073784;28;20559;-70
2023/01/21 00:36:28;;;;;;;44.93;27.57;;;0.80;99.90;;;;;;5073791;28;20258;-72
2023/01/21 00:38:54;;;;;;;47.80;27.00;;;0.70;99.90;;;;;;5073413;28;20654;-71
2023/01/21 00:41:20;;;;;;;49.83;26.43;;;0.70;99.90;;;;;;5073713;28;20167;-73
2023/01/21 00:43:46;;;;;;;45.57;23.03;;;0.60;99.90;;;;;;5073497;28;20206;-72
2023/01/21 00:46:12;;;;;;;50.37;26.40;;;0.60;99.90;;;;;;5072181;28;20229;-71
2023/01/21 00:48:39;;;;;;;44.63;26.50;;;0.60;99.90;;;;;;5073577;28;20223;-71
2023/01/21 00:51:05;;;;;;;47.33;26.97;;;0.50;99.90;;;;;;5073714;28;20615;-71
2023/01/21 00:53:33;;;;;;;46.40;27.83;;;0.50;99.90;;;;;;5073184;28;20178;-72
2023/01/21 00:56:00;;;;;;;50.20;27.47;;;0.50;99.90;;;;;;5073381;28;20239;-71
2023/01/21 00:58:26;;;;;;;46.20;26.77;;;0.50;99.90;;;;;;5073301;28;20651;-72
2023/01/21 01:01:03;;;;;;;53.87;29.50;;;0.50;99.90;;;;;;5073325;28;20253;-71
2023/01/21 01:03:29;;;;;;;45.90;24.73;;;0.50;99.90;;;;;;5073460;28;20208;-73
2023/01/21 01:05:59;;;;;;;47.63;23.73;;;0.50;99.90;;;;;;5072924;28;20230;-72
2023/01/21 01:08:25;;;;;;;50.97;26.57;;;0.50;99.90;;;;;;5073472;28;20714;-72
2023/01/21 01:10:53;;;;;;;55.50;29.90;;;0.50;99.90;;;;;;5073376;28;20196;-71
2023/01/21 01:13:18;;;;;;;51.33;28.10;;;0.40;99.90;;;;;;5073065;28;20232;-71
2023/01/21 01:15:46;;;;;;;55.73;29.47;;;0.40;99.90;;;;;;5073248;28;20164;-72
2023/01/21 01:18:11;;;;;;;52.20;27.73;;;0.40;99.90;;;;;;5073180;28;20247;-71
2023/01/21 01:20:41;;;;;;;58.97;30.20;;;0.30;99.90;;;;;;5073036;28;20641;-70
2023/01/21 01:23:06;;;;;;;55.00;28.17;;;0.30;99.90;;;;;;5073198;28;20216;-70
2023/01/21 01:25:33;;;;;;;58.30;31.20;;;0.30;99.90;;;;;;5071697;28;20222;-73
2023/01/21 01:27:59;;;;;;;57.37;30.17;;;0.30;99.90;;;;;;5071681;28;20535;-72
2023/01/21 01:30:24;;;;;;;64.33;28.77;;;0.30;99.90;;;;;;5071561;28;20181;-71
2023/01/21 01:32:50;;;;;;;59.47;31.27;;;0.30;99.90;;;;;;5073131;28;20177;-72
2023/01/21 01:35:15;;;;;;;58.53;31.40;;;0.20;99.90;;;;;;5071510;28;20209;-72
2023/01/21 01:37:41;;;;;;;52.33;28.33;;;0.20;99.90;;;;;;5072984;28;20534;-71
2023/01/21 01:40:09;;;;;;;59.00;30.97;;;0.20;99.90;;;;;;5073081;28;20161;-74
2023/01/21 01:42:34;;;;;;;59.97;30.77;;;0.20;99.90;;;;;;5072780;28;20168;-72
2023/01/21 01:45:15;;;;;;;51.20;27.20;;;0.20;99.90;;;;;;5071602;28;20300;-72
2023/01/21 01:47:46;;;;;;;57.60;29.00;;;0.10;99.90;;;;;;5072712;28;20220;-72
2023/01/21 01:50:15;;;;;;;62.93;33.10;;;0.10;99.90;;;;;;5072638;28;20648;-71
2023/01/21 01:52:42;;;;;;;58.07;27.27;;;0.10;99.90;;;;;;5072752;28;20705;-73
2023/01/21 01:55:10;;;;;;;62.30;32.00;;;0.10;99.90;;;;;;5072586;28;20597;-71
2023/01/21 01:57:39;;;;;;;60.57;31.50;;;0.10;99.90;;;;;;5071501;28;20165;-73
2023/01/21 02:00:07;;;;;;;61.27;30.43;;;0.10;99.90;;;;;;5072900;28;20173;-71
2023/01/21 02:02:34;;;;;;;61.80;31.57;;;0.10;99.90;;;;;;5072675;28;20195;-72
2023/01/21 02:05:05;;;;;;;64.83;32.17;;;0.10;99.90;;;;;;5072194;28;20237;-72
2023/01/21 02:07:38;;;;;;;63.70;33.20;;;0.10;99.90;;;;;;5072623;28;20173;-72
2023/01/21 02:10:07;;;;;;;59.00;30.53;;;0.00;99.90;;;;;;5073720;28;20157;-72
2023/01/21 02:12:34;;;;;;;63.17;32.47;;;0.00;99.90;;;;;;5076316;28;20231;-70
2023/01/21 02:15:00;;;;;;;64.73;31.90;;;0.00;99.90;;;;;;5075155;28;20211;-71
2023/01/21 02:17:43;;;;;;;63.30;31.80;;;0.10;99.90;;;;;;5076323;28;20605;-71
2023/01/21 02:20:27;;;;;;;61.67;32.00;;;0.00;99.90;;;;;;5075850;28;20166;-71
2023/01/21 02:23:48;;;;;;;51.53;21.73;;;0.00;99.90;;;;;;5076236;28;20174;-71
2023/01/21 02:26:28;;;;;;;68.23;31.77;;;0.00;99.90;;;;;;5028679;28;20652;-71
2023/01/21 02:29:15;;;;;;;68.00;32.43;;;0.00;99.90;;;;;;5076030;28;20283;-71
2023/01/21 02:32:05;;;;;;;71.07;33.40;;;0.00;99.90;;;;;;5076283;28;20255;-72
2023/01/21 02:34:55;;;;;;;64.80;31.17;;;0.10;99.90;;;;;;5075698;28;20193;-72
2023/01/21 02:37:32;;;;;;;58.27;28.00;;;0.10;99.90;;;;;;5076162;28;20311;-72
2023/01/21 02:40:02;;;;;;;65.70;32.03;;;0.00;99.90;;;;;;5074716;28;20169;-71
2023/01/21 02:42:34;;;;;;;66.47;33.37;;;0.00;99.90;;;;;;5076069;28;20267;-71
2023/01/21 02:45:20;;;;;;;71.03;33.90;;;0.00;99.90;;;;;;5075882;28;20201;-71
2023/01/21 02:48:06;;;;;;;73.17;31.53;;;0.00;99.90;;;;;;5061137;28;20222;-71
2023/01/21 02:50:48;;;;;;;71.63;33.60;;;-0.10;99.90;;;;;;5075960;28;20172;-70
2023/01/21 02:53:32;;;;;;;65.60;29.73;;;-0.10;99.90;;;;;;5075759;28;20226;-71
2023/01/21 02:56:07;;;;;;;73.20;34.30;;;-0.10;99.90;;;;;;5074254;28;20596;-71
2023/01/21 02:58:35;;;;;;;70.23;32.97;;;-0.10;99.90;;;;;;5075841;28;20169;-72
2023/01/21 03:01:22;;;;;;;71.47;33.37;;;-0.20;99.90;;;;;;5075629;28;20178;-72
2023/01/21 03:03:59;;;;;;;74.00;34.70;;;-0.10;99.90;;;;;;5075205;28;20203;-71
2023/01/21 03:06:52;;;;;;;77.70;34.70;;;-0.10;99.90;;;;;;5075425;28;20172;-72
2023/01/21 03:09:29;;;;;;;65.67;31.37;;;-0.10;99.90;;;;;;5075372;28;20175;-73
2023/01/21 03:12:00;;;;;;;70.83;33.70;;;-0.10;99.90;;;;;;5075459;28;20170;-72
2023/01/21 03:17:54;;;;;;;70.13;33.70;;;-0.20;99.90;;;;;;5053842;28;20536;-72
2023/01/21 03:20:33;;;;;;;69.90;30.33;;;-0.20;99.90;;;;;;5075445;28;20164;-70
2023/01/21 03:23:05;;;;;;;73.03;34.83;;;-0.20;99.90;;;;;;5074194;28;20172;-72
2023/01/21 03:25:33;;;;;;;72.53;31.63;;;-0.20;99.90;;;;;;5075070;28;20208;-72
2023/01/21 03:28:02;;;;;;;80.53;36.17;;;-0.20;99.90;;;;;;5075293;28;20248;-72
2023/01/21 03:30:32;;;;;;;77.50;33.93;;;-0.20;99.90;;;;;;5073914;28;20181;-71
2023/01/21 03:32:59;;;;;;;79.37;36.30;;;-0.20;99.90;;;;;;5074730;28;20218;-72
2023/01/21 03:35:30;;;;;;;72.33;35.83;;;-0.20;99.90;;;;;;5075179;28;20194;-71
2023/01/21 03:38:22;;;;;;;74.30;34.63;;;-0.20;99.90;;;;;;5073471;28;20639;-72
2023/01/21 03:41:06;;;;;;;76.03;34.43;;;-0.30;99.90;;;;;;5075077;28;20684;-71
2023/01/21 03:43:32;;;;;;;76.73;35.97;;;-0.30;99.90;;;;;;5074581;28;20177;-72
2023/01/21 03:46:16;;;;;;;72.67;34.53;;;-0.30;99.90;;;;;;5074085;28;20235;-71
2023/01/21 03:49:05;;;;;;;76.07;34.87;;;-0.30;99.90;;;;;;5074759;28;20181;-72
2023/01/21 03:51:41;;;;;;;78.10;35.93;;;-0.30;99.90;;;;;;5073409;28;20256;-71
2023/01/21 03:54:07;;;;;;;79.97;35.47;;;-0.30;99.90;;;;;;5074447;28;20256;-72
2023/01/21 03:56:33;;;;;;;78.87;35.20;;;-0.30;99.90;;;;;;5073388;28;20226;-71
2023/01/21 03:58:58;;;;;;;73.30;30.53;;;-0.30;99.90;;;;;;5074457;28;20255;-71
2023/01/21 04:01:24;;;;;;;74.60;32.63;;;-0.30;99.90;;;;;;5072820;28;20173;-70
2023/01/21 04:03:49;;;;;;;76.67;33.80;;;-0.40;99.90;;;;;;5074252;28;20258;-71
2023/01/21 04:06:18;;;;;;;81.73;35.90;;;-0.40;99.90;;;;;;5074134;28;20570;-70
2023/01/21 04:08:44;;;;;;;73.03;30.47;;;-0.40;99.90;;;;;;5074297;28;20169;-70
2023/01/21 04:11:09;;;;;;;67.77;28.83;;;-0.40;99.90;;;;;;5074293;28;20173;-71
2023/01/21 04:13:35;;;;;;;75.40;35.23;;;-0.40;99.90;;;;;;5073916;28;20164;-71
2023/01/21 04:16:01;;;;;;;79.70;34.57;;;-0.40;99.90;;;;;;5073824;28;20176;-71
2023/01/21 04:18:27;;;;;;;77.00;36.10;;;-0.50;99.90;;;;;;5073793;28;20251;-72
2023/01/21 04:20:52;;;;;;;86.77;37.40;;;-0.50;99.90;;;;;;5074044;28;20173;-69
2023/01/21 04:23:18;;;;;;;77.93;37.60;;;-0.50;99.90;;;;;;5073835;28;20169;-72
2023/01/21 04:25:46;;;;;;;77.13;36.07;;;-0.50;99.90;;;;;;5073679;28;20283;-72
2023/01/21 04:28:11;;;;;;;74.80;34.03;;;-0.50;99.90;;;;;;5073893;28;20179;-71
2023/01/21 04:30:37;;;;;;;78.27;33.20;;;-0.50;99.90;;;;;;5073240;28;20173;-72
2023/01/21 04:33:03;;;;;;;79.77;35.57;;;-0.50;99.90;;;;;;5073121;28;20173;-71
2023/01/21 04:35:28;;;;;;;83.30;34.97;;;-0.50;99.90;;;;;;5073647;28;20169;-71
2023/01/21 04:37:54;;;;;;;62.80;26.30;;;-0.50;99.90;;;;;;5073953;28;20177;-70
2023/01/21 04:40:19;;;;;;;87.50;35.13;;;-0.50;99.90;;;;;;5073970;28;20271;-71
2023/01/21 04:42:45;;;;;;;78.70;34.70;;;-0.50;99.90;;;;;;5073230;28;20200;-72
2023/01/21 04:45:10;;;;;;;85.10;36.37;;;-0.40;99.90;;;;;;5073011;28;20688;-72
2023/01/21 04:47:41;;;;;;;80.60;34.13;;;-0.50;99.90;;;;;;5073386;28;20307;-72
2023/01/21 04:50:07;;;;;;;84.03;34.50;;;-0.50;99.90;;;;;;5073344;28;20624;-71
2023/01/21 04:52:32;;;;;;;81.97;36.60;;;-0.50;99.90;;;;;;5073451;28;20179;-72
2023/01/21 04:54:58;;;;;;;76.90;30.83;;;-0.50;99.90;;;;;;5073363;28;20192;-71
2023/01/21 04:57:23;;;;;;;72.43;31.70;;;-0.50;99.90;;;;;;5073465;28;20173;-71
2023/01/21 04:59:49;;;;;;;76.53;34.17;;;-0.50;99.90;;;;;;5072877;28;20252;-71
2023/01/21 05:02:15;;;;;;;79.43;35.17;;;-0.40;99.90;;;;;;5073217;28;20177;-71
2023/01/21 05:04:41;;;;;;;66.50;28.33;;;-0.40;99.90;;;;;;5071581;28;20572;-71
2023/01/21 05:07:06;;;;;;;85.03;35.93;;;-0.50;99.90;;;;;;5072932;28;20572;-71
2023/01/21 05:09:32;;;;;;;77.90;35.87;;;-0.60;99.90;;;;;;5073126;28;20178;-71
2023/01/21 05:11:57;;;;;;;79.27;35.63;;;-0.50;99.90;;;;;;5073334;28;20522;-72
2023/01/21 05:14:23;;;;;;;83.93;37.03;;;-0.50;99.90;;;;;;5072848;28;20192;-71
2023/01/21 05:16:48;;;;;;;76.37;36.50;;;-0.60;99.90;;;;;;5072948;28;20514;-71
2023/01/21 05:19:14;;;;;;;74.07;29.33;;;-0.50;99.90;;;;;;5072944;28;20196;-71
2023/01/21 05:21:40;;;;;;;79.43;33.43;;;-0.60;99.90;;;;;;5073269;28;20204;-70
2023/01/21 05:24:05;;;;;;;80.10;35.40;;;-0.50;99.90;;;;;;5073107;28;20240;-71
2023/01/21 05:26:31;;;;;;;80.77;36.27;;;-0.60;99.90;;;;;;5072921;28;20659;-72
2023/01/21 05:28:57;;;;;;;80.50;31.33;;;-0.60;99.90;;;;;;5072460;28;20180;-70
2023/01/21 05:31:23;;;;;;;76.53;31.13;;;-0.60;99.90;;;;;;5073244;28;20655;-69
2023/01/21 05:33:49;;;;;;;79.67;35.47;;;-0.60;99.90;;;;;;5072667;28;20208;-69
2023/01/21 05:36:15;;;;;;;78.97;33.63;;;-0.60;99.90;;;;;;5072967;28;20208;-71
2023/01/21 05:38:40;;;;;;;81.43;34.50;;;-0.70;99.90;;;;;;5071589;28;20629;-71
2023/01/21 05:41:06;;;;;;;85.30;37.40;;;-0.70;99.90;;;;;;5072633;28;20176;-71
2023/01/21 05:43:31;;;;;;;79.53;33.17;;;-0.70;99.90;;;;;;5072128;28;20639;-71
2023/01/21 05:45:57;;;;;;;84.17;36.00;;;-0.70;99.90;;;;;;5074930;28;20229;-69
2023/01/21 05:48:23;;;;;;;89.93;37.33;;;-0.70;99.90;;;;;;5076785;28;20199;-71
2023/01/21 05:50:49;;;;;;;82.50;36.33;;;-0.70;99.90;;;;;;5076660;28;20180;-71
2023/01/21 05:53:15;;;;;;;86.73;36.97;;;-0.80;99.90;;;;;;5075521;28;20173;-71
2023/01/21 05:55:41;;;;;;;84.03;34.83;;;-0.80;99.90;;;;;;5076579;28;20286;-71
2023/01/21 05:58:07;;;;;;;86.30;37.27;;;-0.80;99.90;;;;;;5076355;28;20194;-70
2023/01/21 06:00:33;;;;;;;80.40;32.27;;;-0.80;99.90;;;;;;5076821;28;20181;-70
2023/01/21 06:03:00;;;;;;;90.93;37.57;;;-0.80;99.90;;;;;;5076507;28;20217;-71
2023/01/21 06:05:26;;;;;;;88.33;39.40;;;-0.80;99.90;;;;;;5076583;28;20291;-72
2023/01/21 06:07:52;;;;;;;97.20;39.17;;;-0.80;99.90;;;;;;5076723;28;20195;-71
2023/01/21 06:10:19;;;;;;;86.73;37.93;;;-0.80;99.90;;;;;;5076432;28;20636;-72
2023/01/21 06:12:45;;;;;;;85.83;38.90;;;-0.80;99.90;;;;;;5076353;28;20176;-71
2023/01/21 06:15:12;;;;;;;81.33;35.20;;;-0.80;99.90;;;;;;5076277;28;20171;-71
2023/01/21 06:17:39;;;;;;;73.27;31.50;;;-0.80;99.90;;;;;;5076081;28;20176;-70
2023/01/21 06:20:05;;;;;;;93.90;34.80;;;-0.80;99.90;;;;;;5076026;28;20697;-72
2023/01/21 06:22:31;;;;;;;86.07;37.23;;;-0.80;99.90;;;;;;5076406;28;20207;-72
2023/01/21 06:24:57;;;;;;;94.00;39.17;;;-0.80;99.90;;;;;;5075822;28;20620;-72
2023/01/21 06:27:22;;;;;;;89.83;36.97;;;-0.90;99.90;;;;;;5076089;28;20206;-72
2023/01/21 06:29:48;;;;;;;92.50;40.03;;;-0.90;99.90;;;;;;5075808;28;20183;-72
2023/01/21 06:32:13;;;;;;;89.60;40.27;;;-0.90;99.90;;;;;;5075918;28;20571;-71
2023/01/21 06:34:39;;;;;;;90.17;39.87;;;-0.80;99.90;;;;;;5075863;28;20644;-71
2023/01/21 06:37:05;;;;;;;89.73;39.00;;;-0.90;99.90;;;;;;5075957;28;20260;-72
2023/01/21 06:39:30;;;;;;;96.57;40.33;;;-0.90;99.90;;;;;;5075401;28;20173;-71
2023/01/21 06:41:56;;;;;;;88.53;35.23;;;-0.90;99.90;;;;;;5075453;28;20523;-72
2023/01/21 06:44:22;;;;;;;90.27;39.13;;;-0.90;99.90;;;;;;5075864;28;20236;-72
2023/01/21 06:46:48;;;;;;;88.90;39.70;;;-0.90;99.90;;;;;;5075517;28;20271;-72
2023/01/21 06:49:13;;;;;;;94.07;40.43;;;-0.90;99.90;;;;;;5075043;28;20196;-73
2023/01/21 06:51:39;;;;;;;84.30;38.43;;;-0.90;99.90;;;;;;5075770;28;20250;-72
2023/01/21 06:54:05;;;;;;;92.50;38.57;;;-0.90;99.90;;;;;;5074864;28;20176;-72
2023/01/21 06:56:30;;;;;;;91.33;38.00;;;-0.90;99.90;;;;;;5075162;28;20172;-72
2023/01/21 06:58:56;;;;;;;98.03;39.27;;;-0.90;99.90;;;;;;5075134;28;20180;-71
2023/01/21 07:01:21;;;;;;;97.87;40.10;;;-0.90;99.90;;;;;;5075463;28;20177;-71
2023/01/21 07:03:47;;;;;;;95.93;40.03;;;-1.00;99.90;;;;;;5073939;28;20234;-71
2023/01/21 07:06:13;;;;;;;97.20;40.73;;;-0.90;99.90;;;;;;5075084;28;20173;-72
2023/01/21 07:08:38;;;;;;;94.60;38.63;;;-0.90;99.90;;;;;;5073646;28;20695;-72
2023/01/21 07:11:04;;;;;;;97.93;40.27;;;-0.90;99.90;;;;;;5075150;28;20168;-71
2023/01/21 07:13:30;;;;;;;96.53;40.70;;;-1.00;99.90;;;;;;5073978;28;20183;-71
2023/01/21 07:16:00;;;;;;;96.07;39.93;;;-1.00;99.90;;;;;;5075090;28;20528;-71
2023/01/21 07:18:26;;;;;;;96.23;40.07;;;-1.00;99.90;;;;;;5075034;28;20174;-71
2023/01/21 07:20:51;;;;;;;92.07;38.87;;;-1.00;99.90;;;;;;5075021;28;20200;-71
2023/01/21 07:23:17;;;;;;;94.13;40.23;;;-1.10;99.90;;;;;;5074689;28;20266;-72
2023/01/21 07:25:42;;;;;;;93.67;39.17;;;-1.10;99.90;;;;;;5075146;28;20208;-71
2023/01/21 07:28:08;;;;;;;88.67;40.43;;;-1.10;99.90;;;;;;5074671;28;20254;-72
2023/01/21 07:30:34;;;;;;;93.60;39.70;;;-1.10;99.90;;;;;;5073775;28;20179;-71
2023/01/21 07:33:07;;;;;;;93.53;40.67;;;-1.10;99.90;;;;;;5075009;28;20169;-72
2023/01/21 07:35:32;;;;;;;92.33;40.37;;;-1.10;99.90;;;;;;5074852;28;20175;-72
2023/01/21 07:37:58;;;;;;;100.33;39.70;;;-1.10;99.90;;;;;;5074376;28;20226;-71
2023/01/21 07:40:24;;;;;;;80.40;34.33;;;-1.10;99.90;;;;;;5074647;28;20257;-72
2023/01/21 07:42:51;;;;;;;92.07;37.90;;;-1.00;99.90;;;;;;5074310;28;20262;-73
2023/01/21 07:45:17;;;;;;;78.93;30.33;;;-1.10;99.90;;;;;;5074365;28;20226;-72
2023/01/21 07:47:42;;;;;;;89.40;37.13;;;-1.10;99.90;;;;;;5074205;28;20204;-71
2023/01/21 07:50:08;;;;;;;71.27;29.57;;;-1.10;99.90;;;;;;5074628;28;20175;-72
2023/01/21 07:52:34;;;;;;;94.90;38.10;;;-1.10;99.90;;;;;;5074285;28;20171;-72
2023/01/21 07:55:00;;;;;;;91.97;39.07;;;-1.10;99.90;;;;;;5074065;28;20192;-73
2023/01/21 07:57:26;;;;;;;76.60;32.40;;;-1.10;99.90;;;;;;5073787;28;20164;-70
2023/01/21 07:59:52;;;;;;;88.87;35.07;;;-1.10;99.90;;;;;;5074340;28;20515;-72
2023/01/21 08:02:17;;;;;;;96.40;39.83;;;-1.10;99.90;;;;;;5074143;28;20211;-71
2023/01/21 08:04:43;;;;;;;90.03;37.90;;;-1.00;99.90;;;;;;5073960;28;20704;-71
2023/01/21 08:07:08;;;;;;;94.83;39.47;;;-1.00;99.90;;;;;;5073369;28;20161;-72
2023/01/21 08:09:37;;;;;;;96.10;39.30;;;-1.00;99.90;;;;;;5073579;28;20690;-72
2023/01/21 08:12:04;;;;;;;89.83;38.57;;;-0.90;99.90;;;;;;5073774;28;20169;-71
2023/01/21 08:14:31;;;;;;;91.03;40.83;;;-0.80;99.90;;;;;;5074139;28;20172;-71
2023/01/21 08:16:57;;;;;;;90.17;39.07;;;-0.80;99.90;;;;;;5073689;28;20260;-70
2023/01/21 08:19:23;;;;;;;90.97;38.07;;;-0.60;99.90;;;;;;5073817;28;20171;-71
2023/01/21 08:21:48;;;;;;;87.07;38.40;;;-0.60;99.90;;;;;;5073302;28;20252;-71
2023/01/21 08:24:14;;;;;;;84.23;38.40;;;-0.50;99.90;;;;;;5073859;28;20200;-71
2023/01/21 08:26:39;;;;;;;88.00;36.73;;;-0.40;99.90;;;;;;5073625;28;20180;-72
2023/01/21 08:29:05;;;;;;;83.13;38.40;;;-0.30;99.90;;;;;;5073546;28;20671;-72
2023/01/21 08:31:30;;;;;;;78.50;36.90;;;-0.30;99.90;;;;;;5073423;28;20169;-71
2023/01/21 08:33:58;;;;;;;77.70;36.33;;;-0.10;99.90;;;;;;5073642;28;20180;-70
2023/01/21 08:36:24;;;;;;;74.27;34.73;;;-0.10;99.90;;;;;;5072725;28;20176;-71
2023/01/21 08:38:54;;;;;;;79.47;36.77;;;0.20;99.90;;;;;;5073177;28;20186;-70
2023/01/21 08:41:20;;;;;;;74.63;35.27;;;0.30;99.90;;;;;;5073333;28;20168;-71
2023/01/21 08:43:45;;;;;;;71.30;35.00;;;0.40;99.90;;;;;;5072820;28;20183;-71
2023/01/21 08:46:12;;;;;;;67.83;34.00;;;0.50;99.90;;;;;;5072699;28;20243;-70
2023/01/21 08:48:37;;;;;;;65.73;32.77;;;0.60;99.90;;;;;;5071847;28;20269;-70
2023/01/21 08:51:04;;;;;;;66.83;35.07;;;0.90;99.90;;;;;;5072663;28;20334;-70
2023/01/21 08:53:29;;;;;;;63.67;32.40;;;1.00;97.70;;;;;;5072864;28;20626;-70
2023/01/21 08:55:59;;;;;;;62.63;33.30;;;1.30;94.20;;;;;;5072653;28;20227;-74
2023/01/21 08:58:25;;;;;;;59.07;29.90;;;1.50;89.90;;;;;;5072861;28;20176;-71
2023/01/21 09:00:50;;;;;;;60.80;31.27;;;1.80;64.40;;;;;;5071907;28;20624;-70
2023/01/21 09:03:18;;;;;;;61.63;29.77;;;1.70;46.40;;;;;;5073427;28;20631;-70
2023/01/21 09:05:44;;;;;;;56.13;30.07;;;2.00;44.50;;;;;;5072519;28;20211;-70
2023/01/21 09:08:10;;;;;;;57.40;30.03;;;2.10;34.60;;;;;;5073229;28;20200;-70
2023/01/21 09:13:19;;;;;;;50.70;27.00;;;2.60;7.80;;;;;;5073095;28;20209;-72
2023/01/21 09:15:45;;;;;;;45.20;24.10;;;2.10;18.50;;;;;;5072776;28;20180;-71
2023/01/21 09:18:11;;;;;;;53.57;28.67;;;2.10;24.00;;;;;;5073335;28;20172;-67
2023/01/21 09:20:38;;;;;;;54.67;29.57;;;2.20;25.40;;;;;;5072174;28;20180;-71
2023/01/21 09:23:22;;;;;;;53.40;29.73;;;2.20;23.30;;;;;;5072678;28;20174;-70
2023/01/21 09:25:49;;;;;;;54.20;30.83;;;2.60;27.80;;;;;;5073028;28;20204;-69
2023/01/21 09:28:15;;;;;;;51.97;29.13;;;2.60;8.60;;;;;;5072705;28;20631;-71
2023/01/21 09:30:40;;;;;;;55.63;30.17;;;2.80;14.30;;;;;;5072625;28;20171;-70
2023/01/21 09:33:06;;;;;;;51.47;29.17;;;3.00;6.70;;;;;;5072950;28;20628;-70
2023/01/21 09:35:32;;;;;;;56.03;30.50;;;2.90;1.00;;;;;;5072134;28;20176;-69
2023/01/21 09:37:57;;;;;;;59.97;30.30;;;2.80;5.00;;;;;;5072334;28;20164;-70
2023/01/21 09:40:23;;;;;;;51.97;29.53;;;3.00;5.10;;;;;;5071004;28;20563;-69
2023/01/21 09:42:49;;;;;;;52.57;28.47;;;3.30;1.00;;;;;;5072526;28;20261;-70
2023/01/21 09:45:17;;;;;;;52.13;30.30;;;3.30;1.00;;;;;;5072710;28;20291;-70
2023/01/21 09:47:46;;;;;;;49.33;29.27;;;3.40;1.00;;;;;;5072138;28;20243;-69
2023/01/21 09:50:20;;;;;;;46.73;28.40;;;4.00;1.00;;;;;;5072328;28;20194;-71
2023/01/21 09:52:58;;;;;;;50.90;29.37;;;3.70;1.00;;;;;;5072802;28;20199;-70
2023/01/21 09:55:40;;;;;;;49.40;28.43;;;3.90;1.00;;;;;;5072249;28;20238;-71
2023/01/21 09:58:32;;;;;;;45.13;27.43;;;4.10;1.00;;;;;;5072194;28;20186;-69
2023/01/21 10:01:02;;;;;;;48.17;26.90;;;3.60;1.00;;;;;;5071310;28;20312;-72
2023/01/21 10:03:58;;;;;;;48.57;28.50;;;3.70;1.00;;;;;;5070626;28;20169;-70
2023/01/21 10:06:38;;;;;;;43.47;25.70;;;3.70;1.00;;;;;;5072332;28;20203;-70
2023/01/21 10:09:20;;;;;;;46.67;26.97;;;3.80;1.00;;;;;;5072044;28;20662;-71
2023/01/21 10:11:57;;;;;;;47.43;27.37;;;3.70;1.00;;;;;;5072531;28;20215;-70
2023/01/21 10:15:10;;;;;;;46.70;27.37;;;4.00;1.00;;;;;;5071069;28;20172;-70
2023/01/21 10:17:50;;;;;;;48.90;27.47;;;4.20;1.00;;;;;;5016099;28;20184;-70
2023/01/21 10:20:36;;;;;;;44.97;26.20;;;3.80;1.00;;;;;;5072685;28;20175;-70
2023/01/21 10:23:10;;;;;;;44.83;26.83;;;3.50;1.00;;;;;;5071500;28;20298;-69
2023/01/21 10:25:37;;;;;;;43.37;24.03;;;3.40;1.00;;;;;;5072131;28;20208;-71
2023/01/21 10:28:27;;;;;;;49.47;28.37;;;3.60;1.00;;;;;;5071988;28;20259;-70
2023/01/21 10:31:03;;;;;;;44.87;26.93;;;3.70;1.00;;;;;;5062654;28;20177;-70
2023/01/21 10:33:31;;;;;;;50.20;25.80;;;3.80;1.00;;;;;;5074230;28;20184;-70
2023/01/21 10:36:18;;;;;;;50.87;27.33;;;3.50;1.00;;;;;;5075324;28;20523;-69
2023/01/21 10:38:58;;;;;;;50.60;27.13;;;3.70;1.00;;;;;;5075745;28;20199;-69
2023/01/21 10:42:05;;;;;;;53.00;28.73;;;3.90;1.00;;;;;;5075407;28;20172;-71
2023/01/21 10:45:00;;;;;;;46.57;27.23;;;3.80;1.00;;;;;;5075156;28;20242;-70
2023/01/21 10:47:26;;;;;;;45.60;26.87;;;4.30;1.00;;;;;;5064564;28;20250;-70
2023/01/21 10:50:18;;;;;;;48.53;27.17;;;4.10;1.00;;;;;;5075649;28;20631;-70
2023/01/21 10:53:05;;;;;;;48.37;27.40;;;4.30;1.00;;;;;;5074728;28;20192;-70
2023/01/21 10:56:08;;;;;;;46.27;26.17;;;4.00;1.00;;;;;;5075362;28;20340;-71
2023/01/21 10:58:39;;;;;;;47.40;27.77;;;3.80;1.00;;;;;;5074655;28;20255;-71
2023/01/21 11:01:14;;;;;;;43.43;27.30;;;3.90;1.00;;;;;;5075248;28;20165;-70
2023/01/21 11:03:50;;;;;;;45.03;26.63;;;4.30;1.00;;;;;;5075493;28;20233;-70
2023/01/21 11:06:17;;;;;;;44.70;28.20;;;4.60;1.00;;;;;;5074266;28;20187;-70
2023/01/21 11:08:48;;;;;;;44.33;25.17;;;4.90;1.00;;;;;;5075255;28;20175;-69
2023/01/21 11:11:25;;;;;;;48.47;26.20;;;5.50;1.00;;;;;;5074553;28;20251;-70
2023/01/21 11:13:51;;;;;;;46.87;26.80;;;4.70;1.00;;;;;;5074842;28;20230;-70
2023/01/21 11:16:30;;;;;;;48.60;26.50;;;4.60;1.00;;;;;;5074825;28;20180;-70
2023/01/21 11:18:56;;;;;;;46.93;28.27;;;5.00;1.00;;;;;;5074549;28;20172;-69
2023/01/21 11:21:24;;;;;;;41.17;25.67;;;5.40;1.00;;;;;;5075006;28;20180;-69
2023/01/21 11:24:03;;;;;;;41.03;25.07;;;5.20;1.00;;;;;;5074454;28;20168;-69
2023/01/21 11:26:55;;;;;;;42.10;25.47;;;4.80;1.00;;;;;;5074517;28;20191;-71
2023/01/21 11:29:22;;;;;;;40.50;26.00;;;5.60;1.00;;;;;;5074378;28;20243;-69
2023/01/21 11:32:15;;;;;;;44.33;25.03;;;5.30;1.00;;;;;;5074751;28;20172;-70
2023/01/21 11:34:46;;;;;;;46.33;25.37;;;5.20;1.00;;;;;;5064534;28;20178;-69
2023/01/21 11:37:26;;;;;;;44.83;26.40;;;5.00;1.00;;;;;;5074497;28;20180;-69
2023/01/21 11:40:00;;;;;;;41.53;23.30;;;5.10;1.00;;;;;;5074183;28;20200;-70
2023/01/21 11:42:26;;;;;;;45.07;26.60;;;4.80;1.00;;;;;;5073378;28;20252;-70
2023/01/21 11:44:53;;;;;;;45.57;25.87;;;5.00;1.00;;;;;;5073605;28;20330;-70
2023/01/21 11:47:33;;;;;;;44.27;26.50;;;5.10;1.00;;;;;;5073858;28;20219;-71
2023/01/21 11:50:11;;;;;;;43.37;25.70;;;5.60;1.00;;;;;;5072409;28;20185;-70
2023/01/21 11:52:37;;;;;;;41.97;25.33;;;5.70;1.00;;;;;;5073947;28;20256;-69
2023/01/21 11:55:17;;;;;;;40.03;21.17;;;5.30;1.00;;;;;;5073619;28;20279;-71
2023/01/21 11:57:47;;;;;;;42.30;25.17;;;5.00;1.00;;;;;;5073999;28;20164;-70
2023/01/21 12:00:19;;;;;;;39.30;23.47;;;5.20;1.00;;;;;;5073256;28;20169;-69
2023/01/21 12:02:51;;;;;;;39.23;21.07;;;4.90;1.00;;;;;;5073643;28;20164;-70
2023/01/21 12:05:34;;;;;;;43.33;25.30;;;4.70;1.00;;;;;;5071792;28;20215;-70
2023/01/21 12:08:05;;;;;;;43.13;25.43;;;4.40;1.00;;;;;;5073873;28;20215;-70
2023/01/21 12:10:36;;;;;;;39.90;23.93;;;4.10;1.00;;;;;;5073374;28;20220;-70
2023/01/21 12:13:14;;;;;;;47.90;27.57;;;3.70;1.00;;;;;;5072980;28;20636;-68
2023/01/21 12:15:55;;;;;;;47.00;24.67;;;3.70;1.00;;;;;;5073609;28;20187;-71
2023/01/21 12:18:27;;;;;;;56.20;29.33;;;3.40;1.00;;;;;;5073800;28;20160;-71
2023/01/21 12:21:21;;;;;;;49.33;27.77;;;3.20;6.30;;;;;;5072990;28;20248;-70
2023/01/21 12:24:03;;;;;;;51.60;27.87;;;3.20;14.60;;;;;;5073367;28;20687;-71
2023/01/21 12:26:35;;;;;;;50.70;28.60;;;3.20;13.70;;;;;;5071995;28;20188;-69
2023/01/21 12:29:01;;;;;;;54.53;28.80;;;3.20;15.50;;;;;;5072534;28;20172;-70
2023/01/21 12:31:30;;;;;;;49.07;25.37;;;3.00;22.50;;;;;;5073488;28;20168;-71
2023/01/21 12:34:03;;;;;;;51.30;28.90;;;2.80;25.30;;;;;;5072989;28;20232;-70
2023/01/21 12:36:39;;;;;;;58.03;26.97;;;2.70;33.60;;;;;;5073397;28;20172;-71
2023/01/21 12:39:07;;;;;;;62.70;32.43;;;2.60;40.00;;;;;;5072894;28;20208;-71
2023/01/21 12:41:35;;;;;;;67.30;33.70;;;2.60;39.30;;;;;;5072319;28;20172;-70
2023/01/21 12:44:23;;;;;;;45.57;22.17;;;2.20;31.40;;;;;;5072740;28;20184;-70
2023/01/21 12:46:54;;;;;;;64.77;29.63;;;2.10;40.20;;;;;;5072862;28;20298;-71
2023/01/21 12:49:42;;;;;;;67.97;34.20;;;2.10;47.50;;;;;;5072432;28;20600;-71
2023/01/21 12:52:18;;;;;;;66.03;34.53;;;2.10;53.20;;;;;;5072886;28;20177;-70
2023/01/21 12:55:03;;;;;;;70.20;32.07;;;2.00;58.40;;;;;;5072414;28;20241;-70
2023/01/21 12:57:37;;;;;;;55.07;25.40;;;2.00;65.00;;;;;;5072086;28;20200;-72
2023/01/21 13:00:09;;;;;;;70.40;32.10;;;1.50;64.80;;;;;;5073501;28;20169;-71